sensor_id;sensor_type;location;lat;lon;timestamp;pressure;altitude;pressure_sealevel;temperature;humidity
38054;BME280;23859;50.672;7.164;2023-06-22T00:01:43;46958.38;;;-140.95;65.15
38054;BME280;23859;50.672;7.164;2023-06-22T00:04:09;46966.41;;;-140.95;65.23
38054;BME280;23859;50.672;7.164;2023-06-22T00:06:35;46958.38;;;-140.95;65.11
38054;BME280;23859;50.672;7.164;2023-06-22T00:09:01;46962.41;;;-140.95;65.18
38054;BME280;23859;50.672;7.164;2023-06-22T00:11:27;46986.56;;;-140.95;65.21
38054;BME280;23859;50.672;7.164;2023-06-22T00:13:53;46970.44;;;-140.95;64.95
38054;BME280;23859;50.672;7.164;2023-06-22T00:16:19;46962.41;;;-140.95;64.97
38054;BME280;23859;50.672;7.164;2023-06-22T00:18:45;46974.47;;;-140.95;65.46
38054;BME280;23859;50.672;7.164;2023-06-22T00:21:13;46954.34;;;-140.95;65.38
38054;BME280;23859;50.672;7.164;2023-06-22T00:23:39;46978.50;;;-140.95;65.95
38054;BME280;23859;50.672;7.164;2023-06-22T00:26:05;46954.34;;;-140.95;65.36
38054;BME280;23859;50.672;7.164;2023-06-22T00:28:31;46970.44;;;-140.95;64.99
38054;BME280;23859;50.672;7.164;2023-06-22T00:30:57;46966.41;;;-140.95;65.56
38054;BME280;23859;50.672;7.164;2023-06-22T00:33:23;46958.38;;;-140.95;65.82
38054;BME280;23859;50.672;7.164;2023-06-22T00:35:49;46970.44;;;-140.95;66.25
38054;BME280;23859;50.672;7.164;2023-06-22T00:38:18;46952.31;;;-140.95;66.50
38054;BME280;23859;50.672;7.164;2023-06-22T00:40:44;46966.41;;;-140.95;66.12
38054;BME280;23859;50.672;7.164;2023-06-22T00:43:10;46962.41;;;-140.95;65.64
38054;BME280;23859;50.672;7.164;2023-06-22T00:45:37;46910.00;;;-140.95;65.51
38054;BME280;23859;50.672;7.164;2023-06-22T00:48:04;46958.38;;;-140.95;65.12
38054;BME280;23859;50.672;7.164;2023-06-22T00:50:32;46968.44;;;-140.95;65.48
38054;BME280;23859;50.672;7.164;2023-06-22T00:53:01;46964.41;;;-140.95;65.07
38054;BME280;23859;50.672;7.164;2023-06-22T00:55:30;46968.44;;;-140.95;64.67
38054;BME280;23859;50.672;7.164;2023-06-22T00:57:56;46966.41;;;-140.95;64.78
38054;BME280;23859;50.672;7.164;2023-06-22T01:00:26;46970.44;;;-140.95;64.61
38054;BME280;23859;50.672;7.164;2023-06-22T01:02:53;46952.31;;;-140.95;63.67
38054;BME280;23859;50.672;7.164;2023-06-22T01:05:20;46960.38;;;-140.95;64.87
38054;BME280;23859;50.672;7.164;2023-06-22T01:08:07;46966.41;;;-140.95;64.25
38054;BME280;23859;50.672;7.164;2023-06-22T01:10:44;46966.41;;;-140.95;64.93
38054;BME280;23859;50.672;7.164;2023-06-22T01:13:35;46966.41;;;-140.95;64.76
38054;BME280;23859;50.672;7.164;2023-06-22T01:16:18;46964.41;;;-140.95;65.11
38054;BME280;23859;50.672;7.164;2023-06-22T01:18:47;46958.38;;;-140.95;65.56
38054;BME280;23859;50.672;7.164;2023-06-22T01:21:19;46974.47;;;-140.95;65.64
38054;BME280;23859;50.672;7.164;2023-06-22T01:26:36;46968.44;;;-140.95;66.42
38054;BME280;23859;50.672;7.164;2023-06-22T01:29:05;46966.41;;;-140.95;66.12
38054;BME280;23859;50.672;7.164;2023-06-22T01:31:31;46970.44;;;-140.95;66.59
38054;BME280;23859;50.672;7.164;2023-06-22T01:34:02;46966.41;;;-140.95;66.60
38054;BME280;23859;50.672;7.164;2023-06-22T01:36:30;46972.47;;;-140.95;67.07
38054;BME280;23859;50.672;7.164;2023-06-22T01:38:57;46966.41;;;-140.95;67.10
38054;BME280;23859;50.672;7.164;2023-06-22T01:41:28;46978.50;;;-140.95;66.68
38054;BME280;23859;50.672;7.164;2023-06-22T01:43:56;46958.38;;;-140.95;67.09
38054;BME280;23859;50.672;7.164;2023-06-22T01:46:23;46974.47;;;-140.95;67.32
38054;BME280;23859;50.672;7.164;2023-06-22T01:48:50;46986.56;;;-140.95;67.28
38054;BME280;23859;50.672;7.164;2023-06-22T01:51:16;46996.66;;;-140.95;67.67
38054;BME280;23859;50.672;7.164;2023-06-22T01:53:42;46986.56;;;-140.95;67.52
38054;BME280;23859;50.672;7.164;2023-06-22T01:56:09;46980.53;;;-140.95;66.56
38054;BME280;23859;50.672;7.164;2023-06-22T01:58:40;46970.44;;;-140.95;66.18
38054;BME280;23859;50.672;7.164;2023-06-22T02:01:12;46974.47;;;-140.95;66.68
38054;BME280;23859;50.672;7.164;2023-06-22T02:03:46;46990.59;;;-140.95;67.50
38054;BME280;23859;50.672;7.164;2023-06-22T02:06:25;46982.53;;;-140.95;67.71
38054;BME280;23859;50.672;7.164;2023-06-22T02:09:00;46986.56;;;-140.95;67.96
38054;BME280;23859;50.672;7.164;2023-06-22T02:11:28;46970.44;;;-140.95;67.61
38054;BME280;23859;50.672;7.164;2023-06-22T02:13:57;46976.50;;;-140.95;66.81
38054;BME280;23859;50.672;7.164;2023-06-22T02:16:23;46974.47;;;-140.95;66.79
38054;BME280;23859;50.672;7.164;2023-06-22T02:18:51;46954.34;;;-140.95;66.51
38054;BME280;23859;50.672;7.164;2023-06-22T02:21:20;46974.47;;;-140.95;66.21
38054;BME280;23859;50.672;7.164;2023-06-22T02:23:47;46990.59;;;-140.95;66.86
38054;BME280;23859;50.672;7.164;2023-06-22T02:26:13;46980.53;;;-140.95;67.24
38054;BME280;23859;50.672;7.164;2023-06-22T02:28:39;46990.59;;;-140.95;68.00
38054;BME280;23859;50.672;7.164;2023-06-22T02:31:05;46980.53;;;-140.95;68.56
38054;BME280;23859;50.672;7.164;2023-06-22T02:33:31;46992.63;;;-140.95;67.80
38054;BME280;23859;50.672;7.164;2023-06-22T02:35:58;46986.56;;;-140.95;68.34
38054;BME280;23859;50.672;7.164;2023-06-22T02:38:24;46984.56;;;-140.95;68.88
38054;BME280;23859;50.672;7.164;2023-06-22T02:40:50;46992.63;;;-140.95;68.57
38054;BME280;23859;50.672;7.164;2023-06-22T02:43:16;46970.44;;;-140.95;69.09
38054;BME280;23859;50.672;7.164;2023-06-22T02:45:42;46984.56;;;-140.95;67.72
38054;BME280;23859;50.672;7.164;2023-06-22T02:48:08;46982.53;;;-140.95;66.91
38054;BME280;23859;50.672;7.164;2023-06-22T02:50:35;46972.47;;;-140.95;66.62
38054;BME280;23859;50.672;7.164;2023-06-22T02:53:01;46978.50;;;-140.95;67.26
38054;BME280;23859;50.672;7.164;2023-06-22T02:55:27;46978.50;;;-140.95;67.05
38054;BME280;23859;50.672;7.164;2023-06-22T02:57:54;46976.50;;;-140.95;67.69
38054;BME280;23859;50.672;7.164;2023-06-22T03:00:20;46976.50;;;-140.95;68.66
38054;BME280;23859;50.672;7.164;2023-06-22T03:02:48;46984.56;;;-140.95;68.96
38054;BME280;23859;50.672;7.164;2023-06-22T03:05:15;46974.47;;;-140.95;68.69
38054;BME280;23859;50.672;7.164;2023-06-22T03:07:46;46982.53;;;-140.95;67.98
38054;BME280;23859;50.672;7.164;2023-06-22T03:10:13;46988.59;;;-140.95;68.48
38054;BME280;23859;50.672;7.164;2023-06-22T03:12:40;46984.56;;;-140.95;66.99
38054;BME280;23859;50.672;7.164;2023-06-22T03:15:08;46994.63;;;-140.95;66.12
38054;BME280;23859;50.672;7.164;2023-06-22T03:17:35;46990.59;;;-140.95;66.08
38054;BME280;23859;50.672;7.164;2023-06-22T03:20:02;46982.53;;;-140.95;66.86
38054;BME280;23859;50.672;7.164;2023-06-22T03:22:39;47004.72;;;-140.95;66.55
38054;BME280;23859;50.672;7.164;2023-06-22T03:25:06;46994.63;;;-140.95;66.62
38054;BME280;23859;50.672;7.164;2023-06-22T03:27:42;46998.66;;;-140.95;66.82
38054;BME280;23859;50.672;7.164;2023-06-22T03:30:10;47002.69;;;-140.95;67.92
38054;BME280;23859;50.672;7.164;2023-06-22T03:32:37;46996.66;;;-140.95;67.95
38054;BME280;23859;50.672;7.164;2023-06-22T03:35:03;46988.59;;;-140.95;68.00
38054;BME280;23859;50.672;7.164;2023-06-22T03:37:30;46994.63;;;-140.95;67.46
38054;BME280;23859;50.672;7.164;2023-06-22T03:39:56;46990.59;;;-140.95;67.75
38054;BME280;23859;50.672;7.164;2023-06-22T03:42:22;46992.63;;;-140.95;67.41
38054;BME280;23859;50.672;7.164;2023-06-22T03:44:48;47006.72;;;-140.95;67.51
38054;BME280;23859;50.672;7.164;2023-06-22T03:47:14;46994.63;;;-140.95;67.59
38054;BME280;23859;50.672;7.164;2023-06-22T03:49:40;47002.69;;;-140.95;67.94
38054;BME280;23859;50.672;7.164;2023-06-22T03:52:06;46893.88;;;-140.95;68.19
38054;BME280;23859;50.672;7.164;2023-06-22T03:54:33;46990.59;;;-140.95;68.02
38054;BME280;23859;50.672;7.164;2023-06-22T03:56:59;46998.66;;;-140.95;67.52
38054;BME280;23859;50.672;7.164;2023-06-22T03:59:25;47000.69;;;-140.95;67.36
38054;BME280;23859;50.672;7.164;2023-06-22T04:01:51;47002.69;;;-140.95;65.77
38054;BME280;23859;50.672;7.164;2023-06-22T04:04:20;46986.56;;;-140.95;66.23
38054;BME280;23859;50.672;7.164;2023-06-22T04:06:46;46996.66;;;-140.95;65.65
38054;BME280;23859;50.672;7.164;2023-06-22T04:09:12;46984.56;;;-140.95;64.16
38054;BME280;23859;50.672;7.164;2023-06-22T04:11:38;46978.50;;;-140.95;64.96
38054;BME280;23859;50.672;7.164;2023-06-22T04:14:04;46994.63;;;-140.95;65.47
38054;BME280;23859;50.672;7.164;2023-06-22T04:16:30;46994.63;;;-140.95;65.21
38054;BME280;23859;50.672;7.164;2023-06-22T04:18:56;46986.56;;;-140.95;64.33
38054;BME280;23859;50.672;7.164;2023-06-22T04:21:22;46988.59;;;-140.95;63.91
38054;BME280;23859;50.672;7.164;2023-06-22T04:23:48;46980.53;;;-140.95;62.92
38054;BME280;23859;50.672;7.164;2023-06-22T04:26:14;46986.56;;;-140.95;62.76
38054;BME280;23859;50.672;7.164;2023-06-22T04:28:41;46978.50;;;-140.95;63.15
38054;BME280;23859;50.672;7.164;2023-06-22T04:31:07;46974.47;;;-140.95;63.78
38054;BME280;23859;50.672;7.164;2023-06-22T04:33:33;46980.53;;;-140.95;64.14
38054;BME280;23859;50.672;7.164;2023-06-22T04:35:59;46982.53;;;-140.95;63.90
38054;BME280;23859;50.672;7.164;2023-06-22T04:38:29;46982.53;;;-140.95;63.74
38054;BME280;23859;50.672;7.164;2023-06-22T04:40:59;46978.50;;;-140.95;63.58
38054;BME280;23859;50.672;7.164;2023-06-22T04:43:27;46982.53;;;-140.95;63.92
38054;BME280;23859;50.672;7.164;2023-06-22T04:45:56;46954.34;;;-140.95;63.42
38054;BME280;23859;50.672;7.164;2023-06-22T04:48:29;46950.31;;;-140.95;62.80
38054;BME280;23859;50.672;7.164;2023-06-22T04:50:59;46962.41;;;-140.95;63.12
38054;BME280;23859;50.672;7.164;2023-06-22T04:53:31;46972.47;;;-140.95;64.73
38054;BME280;23859;50.672;7.164;2023-06-22T04:55:57;46962.41;;;-140.95;64.92
38054;BME280;23859;50.672;7.164;2023-06-22T04:58:23;46970.44;;;-140.95;65.06
38054;BME280;23859;50.672;7.164;2023-06-22T05:00:52;46974.47;;;-140.95;65.36
38054;BME280;23859;50.672;7.164;2023-06-22T05:03:18;46978.50;;;-140.95;65.62
38054;BME280;23859;50.672;7.164;2023-06-22T05:05:44;46964.41;;;-140.95;65.23
38054;BME280;23859;50.672;7.164;2023-06-22T05:08:11;46958.38;;;-140.95;64.20
38054;BME280;23859;50.672;7.164;2023-06-22T05:10:37;46950.31;;;-140.95;63.34
38054;BME280;23859;50.672;7.164;2023-06-22T05:13:03;46940.22;;;-140.95;62.67
38054;BME280;23859;50.672;7.164;2023-06-22T05:15:29;46934.19;;;-140.95;62.70
38054;BME280;23859;50.672;7.164;2023-06-22T05:17:59;46932.16;;;-140.95;62.25
38054;BME280;23859;50.672;7.164;2023-06-22T05:20:25;46934.19;;;-140.95;62.16
38054;BME280;23859;50.672;7.164;2023-06-22T05:22:51;46938.22;;;-140.95;62.27
38054;BME280;23859;50.672;7.164;2023-06-22T05:25:17;46926.13;;;-140.95;61.86
38054;BME280;23859;50.672;7.164;2023-06-22T05:27:43;46918.06;;;-140.95;61.82
38054;BME280;23859;50.672;7.164;2023-06-22T05:30:10;46918.06;;;-140.95;61.70
38054;BME280;23859;50.672;7.164;2023-06-22T05:32:37;46905.97;;;-140.95;61.38
38054;BME280;23859;50.672;7.164;2023-06-22T05:35:04;46910.00;;;-140.95;59.82
38054;BME280;23859;50.672;7.164;2023-06-22T05:37:30;46893.88;;;-140.95;57.89
38054;BME280;23859;50.672;7.164;2023-06-22T05:39:57;46889.84;;;-140.95;56.81
38054;BME280;23859;50.672;7.164;2023-06-22T05:42:23;46883.81;;;-140.95;56.63
38054;BME280;23859;50.672;7.164;2023-06-22T05:44:52;46895.91;;;-140.95;56.64
38054;BME280;23859;50.672;7.164;2023-06-22T05:47:19;46851.56;;;-140.95;57.06
38054;BME280;23859;50.672;7.164;2023-06-22T05:49:45;46889.84;;;-140.95;57.21
38054;BME280;23859;50.672;7.164;2023-06-22T05:52:11;46901.94;;;-140.95;57.40
38054;BME280;23859;50.672;7.164;2023-06-22T05:54:37;46881.81;;;-140.95;57.18
38054;BME280;23859;50.672;7.164;2023-06-22T05:57:05;46889.84;;;-140.95;57.53
38054;BME280;23859;50.672;7.164;2023-06-22T05:59:31;46881.81;;;-140.95;57.14
38054;BME280;23859;50.672;7.164;2023-06-22T06:01:57;46881.81;;;-140.95;56.76
38054;BME280;23859;50.672;7.164;2023-06-22T06:04:23;46863.66;;;-140.95;56.17
38054;BME280;23859;50.672;7.164;2023-06-22T06:06:49;46861.66;;;-140.95;56.27
38054;BME280;23859;50.672;7.164;2023-06-22T06:09:15;46853.59;;;-140.95;55.25
38054;BME280;23859;50.672;7.164;2023-06-22T06:11:41;46855.59;;;-140.95;55.37
38054;BME280;23859;50.672;7.164;2023-06-22T06:14:08;46857.63;;;-140.95;55.56
38054;BME280;23859;50.672;7.164;2023-06-22T06:16:34;46865.69;;;-140.95;56.32
38054;BME280;23859;50.672;7.164;2023-06-22T06:19:00;46853.59;;;-140.95;55.90
38054;BME280;23859;50.672;7.164;2023-06-22T06:21:26;46861.66;;;-140.95;54.23
38054;BME280;23859;50.672;7.164;2023-06-22T06:23:52;46857.63;;;-140.95;54.92
38054;BME280;23859;50.672;7.164;2023-06-22T06:26:19;46859.63;;;-140.95;55.28
38054;BME280;23859;50.672;7.164;2023-06-22T06:28:52;46841.50;;;-140.95;55.57
38054;BME280;23859;50.672;7.164;2023-06-22T06:31:18;46843.50;;;-140.95;55.60
38054;BME280;23859;50.672;7.164;2023-06-22T06:33:44;46849.56;;;-140.95;55.49
38054;BME280;23859;50.672;7.164;2023-06-22T06:36:10;46857.63;;;-140.95;55.99
38054;BME280;23859;50.672;7.164;2023-06-22T06:38:36;46841.50;;;-140.95;55.88
38054;BME280;23859;50.672;7.164;2023-06-22T06:41:02;46869.72;;;-140.95;55.91
38054;BME280;23859;50.672;7.164;2023-06-22T06:43:28;46845.53;;;-140.95;55.26
38054;BME280;23859;50.672;7.164;2023-06-22T06:45:54;46865.69;;;-140.95;55.38
38054;BME280;23859;50.672;7.164;2023-06-22T06:48:20;46867.69;;;-140.95;56.25
38054;BME280;23859;50.672;7.164;2023-06-22T06:50:46;46855.59;;;-140.95;55.49
38054;BME280;23859;50.672;7.164;2023-06-22T06:53:13;46857.63;;;-140.95;55.09
38054;BME280;23859;50.672;7.164;2023-06-22T06:55:39;46841.50;;;-140.95;54.44
38054;BME280;23859;50.672;7.164;2023-06-22T06:58:05;46845.53;;;-140.95;53.67
38054;BME280;23859;50.672;7.164;2023-06-22T07:00:33;46849.56;;;-140.95;53.93
38054;BME280;23859;50.672;7.164;2023-06-22T07:02:59;46847.53;;;-140.95;54.27
38054;BME280;23859;50.672;7.164;2023-06-22T07:05:25;46861.66;;;-140.95;55.97
38054;BME280;23859;50.672;7.164;2023-06-22T07:07:51;46865.69;;;-140.95;55.72
38054;BME280;23859;50.672;7.164;2023-06-22T07:10:19;46861.66;;;-140.95;56.01
38054;BME280;23859;50.672;7.164;2023-06-22T07:12:45;46869.72;;;-140.95;55.48
38054;BME280;23859;50.672;7.164;2023-06-22T07:15:12;46861.66;;;-140.95;56.20
38054;BME280;23859;50.672;7.164;2023-06-22T07:17:39;46853.59;;;-140.95;55.92
38054;BME280;23859;50.672;7.164;2023-06-22T07:20:07;46863.66;;;-140.95;56.30
38054;BME280;23859;50.672;7.164;2023-06-22T07:22:38;46857.63;;;-140.95;55.57
38054;BME280;23859;50.672;7.164;2023-06-22T07:25:04;46873.75;;;-140.95;56.53
38054;BME280;23859;50.672;7.164;2023-06-22T07:27:36;46849.56;;;-140.95;56.35
38054;BME280;23859;50.672;7.164;2023-06-22T07:30:04;46839.50;;;-140.95;54.84
38054;BME280;23859;50.672;7.164;2023-06-22T07:32:30;46809.25;;;-140.95;51.32
38054;BME280;23859;50.672;7.164;2023-06-22T07:34:56;46789.13;;;-140.95;49.70
38054;BME280;23859;50.672;7.164;2023-06-22T07:37:22;46773.00;;;-140.95;49.02
38054;BME280;23859;50.672;7.164;2023-06-22T07:39:48;46738.75;;;-140.95;47.03
38054;BME280;23859;50.672;7.164;2023-06-22T07:42:16;46736.72;;;-140.95;46.52
38054;BME280;23859;50.672;7.164;2023-06-22T07:44:44;46678.31;;;-140.95;43.02
38054;BME280;23859;50.672;7.164;2023-06-22T07:47:10;46670.25;;;-140.95;40.15
38054;BME280;23859;50.672;7.164;2023-06-22T07:49:36;46712.56;;;-140.95;43.90
38054;BME280;23859;50.672;7.164;2023-06-22T07:52:03;46664.19;;;-140.95;41.24
38054;BME280;23859;50.672;7.164;2023-06-22T07:54:30;46636.00;;;-140.95;38.94
38054;BME280;23859;50.672;7.164;2023-06-22T07:56:56;46678.31;;;-140.95;40.91
38054;BME280;23859;50.672;7.164;2023-06-22T07:59:22;46623.91;;;-140.95;38.23
38054;BME280;23859;50.672;7.164;2023-06-22T08:01:48;46591.66;;;-140.95;34.48
38054;BME280;23859;50.672;7.164;2023-06-22T08:04:15;46569.50;;;-140.95;33.37
38054;BME280;23859;50.672;7.164;2023-06-22T08:06:41;46549.38;;;-140.95;32.23
38054;BME280;23859;50.672;7.164;2023-06-22T08:09:07;46557.41;;;-140.95;33.30
38054;BME280;23859;50.672;7.164;2023-06-22T08:11:33;46565.47;;;-140.95;34.05
38054;BME280;23859;50.672;7.164;2023-06-22T08:14:00;46601.75;;;-140.95;35.86
38054;BME280;23859;50.672;7.164;2023-06-22T08:16:26;46607.78;;;-140.95;36.07
38054;BME280;23859;50.672;7.164;2023-06-22T08:18:52;46636.00;;;-140.95;38.03
38054;BME280;23859;50.672;7.164;2023-06-22T08:21:18;46644.06;;;-140.95;40.31
38054;BME280;23859;50.672;7.164;2023-06-22T08:23:44;46640.03;;;-140.95;38.22
38054;BME280;23859;50.672;7.164;2023-06-22T08:26:10;46617.88;;;-140.95;37.55
38054;BME280;23859;50.672;7.164;2023-06-22T08:28:36;46631.97;;;-140.95;38.74
38054;BME280;23859;50.672;7.164;2023-06-22T08:31:02;46652.13;;;-140.95;38.75
38054;BME280;23859;50.672;7.164;2023-06-22T08:33:29;46656.16;;;-140.95;40.10
38054;BME280;23859;50.672;7.164;2023-06-22T08:35:57;46694.41;;;-140.95;43.19
38054;BME280;23859;50.672;7.164;2023-06-22T08:38:23;46680.31;;;-140.95;43.59
38054;BME280;23859;50.672;7.164;2023-06-22T08:40:50;46714.56;;;-140.95;46.06
38054;BME280;23859;50.672;7.164;2023-06-22T08:43:16;46732.69;;;-140.95;46.58
38054;BME280;23859;50.672;7.164;2023-06-22T08:45:42;46744.78;;;-140.95;48.69
38054;BME280;23859;50.672;7.164;2023-06-22T08:48:08;46728.69;;;-140.95;47.79
38054;BME280;23859;50.672;7.164;2023-06-22T08:50:34;46724.66;;;-140.95;48.12
38054;BME280;23859;50.672;7.164;2023-06-22T08:53:00;46730.69;;;-140.95;48.55
38054;BME280;23859;50.672;7.164;2023-06-22T08:55:26;46722.63;;;-140.95;48.35
38054;BME280;23859;50.672;7.164;2023-06-22T08:57:52;46728.69;;;-140.95;48.33
38054;BME280;23859;50.672;7.164;2023-06-22T09:00:18;46728.69;;;-140.95;48.02
38054;BME280;23859;50.672;7.164;2023-06-22T09:02:46;46714.56;;;-140.95;47.67
38054;BME280;23859;50.672;7.164;2023-06-22T09:05:13;46708.53;;;-140.95;46.45
38054;BME280;23859;50.672;7.164;2023-06-22T09:07:39;46700.47;;;-140.95;46.24
38054;BME280;23859;50.672;7.164;2023-06-22T09:10:06;46726.66;;;-140.95;48.77
38054;BME280;23859;50.672;7.164;2023-06-22T09:12:33;46724.66;;;-140.95;48.86
38054;BME280;23859;50.672;7.164;2023-06-22T09:15:00;46700.47;;;-140.95;46.95
38054;BME280;23859;50.672;7.164;2023-06-22T09:17:26;46694.41;;;-140.95;43.04
38054;BME280;23859;50.672;7.164;2023-06-22T09:19:53;46688.38;;;-140.95;42.72
38054;BME280;23859;50.672;7.164;2023-06-22T09:22:19;46668.22;;;-140.95;41.04
38054;BME280;23859;50.672;7.164;2023-06-22T09:24:45;46660.16;;;-140.95;42.06
38054;BME280;23859;50.672;7.164;2023-06-22T09:27:11;46631.97;;;-140.95;40.06
38054;BME280;23859;50.672;7.164;2023-06-22T09:29:37;46664.19;;;-140.95;38.75
38054;BME280;23859;50.672;7.164;2023-06-22T09:32:03;46660.16;;;-140.95;39.77
38054;BME280;23859;50.672;7.164;2023-06-22T09:34:29;46660.16;;;-140.95;39.70
38054;BME280;23859;50.672;7.164;2023-06-22T09:36:57;46668.22;;;-140.95;40.58
38054;BME280;23859;50.672;7.164;2023-06-22T09:39:26;46676.28;;;-140.95;41.46
38054;BME280;23859;50.672;7.164;2023-06-22T09:41:52;46682.34;;;-140.95;41.42
38054;BME280;23859;50.672;7.164;2023-06-22T09:44:18;46684.34;;;-140.95;41.37
38054;BME280;23859;50.672;7.164;2023-06-22T09:46:44;46696.44;;;-140.95;41.80
38054;BME280;23859;50.672;7.164;2023-06-22T09:49:10;46712.56;;;-140.95;42.84
38054;BME280;23859;50.672;7.164;2023-06-22T09:51:36;46720.63;;;-140.95;43.54
38054;BME280;23859;50.672;7.164;2023-06-22T09:54:03;46708.53;;;-140.95;43.63
38054;BME280;23859;50.672;7.164;2023-06-22T09:56:29;46728.69;;;-140.95;43.62
38054;BME280;23859;50.672;7.164;2023-06-22T09:58:56;46732.69;;;-140.95;44.96
38054;BME280;23859;50.672;7.164;2023-06-22T10:01:22;46736.72;;;-140.95;45.34
38054;BME280;23859;50.672;7.164;2023-06-22T10:03:48;46744.78;;;-140.95;46.23
38054;BME280;23859;50.672;7.164;2023-06-22T10:06:18;46722.63;;;-140.95;46.25
38054;BME280;23859;50.672;7.164;2023-06-22T10:08:44;46728.69;;;-140.95;47.07
38054;BME280;23859;50.672;7.164;2023-06-22T10:11:10;46760.91;;;-140.95;47.54
38054;BME280;23859;50.672;7.164;2023-06-22T10:13:36;46756.88;;;-140.95;49.04
38054;BME280;23859;50.672;7.164;2023-06-22T10:16:02;46756.88;;;-140.95;49.09
38054;BME280;23859;50.672;7.164;2023-06-22T10:18:28;46764.94;;;-140.95;49.98
38054;BME280;23859;50.672;7.164;2023-06-22T10:20:54;46777.03;;;-140.95;51.27
38054;BME280;23859;50.672;7.164;2023-06-22T10:23:20;46787.09;;;-140.95;52.17
38054;BME280;23859;50.672;7.164;2023-06-22T10:25:47;46797.19;;;-140.95;52.52
38054;BME280;23859;50.672;7.164;2023-06-22T10:28:13;46791.13;;;-140.95;53.48
38054;BME280;23859;50.672;7.164;2023-06-22T10:30:40;46793.16;;;-140.95;55.81
38054;BME280;23859;50.672;7.164;2023-06-22T10:33:10;46809.25;;;-140.95;57.38
38054;BME280;23859;50.672;7.164;2023-06-22T10:35:37;46809.25;;;-140.95;59.44
38054;BME280;23859;50.672;7.164;2023-06-22T10:38:04;46833.44;;;-140.95;63.14
38054;BME280;23859;50.672;7.164;2023-06-22T10:40:30;46841.50;;;-140.95;68.94
38054;BME280;23859;50.672;7.164;2023-06-22T10:42:56;46847.53;;;-140.95;72.21
38054;BME280;23859;50.672;7.164;2023-06-22T10:45:22;46889.84;;;-140.95;72.16
38054;BME280;23859;50.672;7.164;2023-06-22T10:47:49;46889.84;;;-140.95;73.82
38054;BME280;23859;50.672;7.164;2023-06-22T10:50:15;46877.78;;;-140.95;74.87
38054;BME280;23859;50.672;7.164;2023-06-22T10:52:41;46905.97;;;-140.95;79.33
38054;BME280;23859;50.672;7.164;2023-06-22T10:55:08;46901.94;;;-140.95;80.60
38054;BME280;23859;50.672;7.164;2023-06-22T10:57:34;46914.03;;;-140.95;81.75
38054;BME280;23859;50.672;7.164;2023-06-22T11:00:01;46934.19;;;-140.95;84.24
38054;BME280;23859;50.672;7.164;2023-06-22T11:02:27;46934.19;;;-140.95;85.13
38054;BME280;23859;50.672;7.164;2023-06-22T11:04:54;46930.16;;;-140.95;85.73
38054;BME280;23859;50.672;7.164;2023-06-22T11:07:20;46938.22;;;-140.95;85.84
38054;BME280;23859;50.672;7.164;2023-06-22T11:09:46;46950.31;;;-140.95;85.90
38054;BME280;23859;50.672;7.164;2023-06-22T11:12:12;46946.28;;;-140.95;86.46
38054;BME280;23859;50.672;7.164;2023-06-22T11:14:39;46938.22;;;-140.95;86.69
38054;BME280;23859;50.672;7.164;2023-06-22T11:17:05;46934.19;;;-140.95;86.80
38054;BME280;23859;50.672;7.164;2023-06-22T11:19:31;46924.09;;;-140.95;87.13
38054;BME280;23859;50.672;7.164;2023-06-22T11:21:57;46940.22;;;-140.95;86.83
38054;BME280;23859;50.672;7.164;2023-06-22T11:24:23;46942.25;;;-140.95;86.72
38054;BME280;23859;50.672;7.164;2023-06-22T11:26:49;46918.06;;;-140.95;86.96
38054;BME280;23859;50.672;7.164;2023-06-22T11:29:15;46922.09;;;-140.95;86.72
38054;BME280;23859;50.672;7.164;2023-06-22T11:31:41;46910.00;;;-140.95;86.68
38054;BME280;23859;50.672;7.164;2023-06-22T11:34:09;46910.00;;;-140.95;86.43
38054;BME280;23859;50.672;7.164;2023-06-22T11:36:35;46877.78;;;-140.95;85.53
38054;BME280;23859;50.672;7.164;2023-06-22T11:39:01;46891.88;;;-140.95;81.99
38054;BME280;23859;50.672;7.164;2023-06-22T11:41:28;46869.72;;;-140.95;81.90
38054;BME280;23859;50.672;7.164;2023-06-22T11:43:54;46857.63;;;-140.95;79.24
38054;BME280;23859;50.672;7.164;2023-06-22T11:46:20;46859.63;;;-140.95;75.99
38054;BME280;23859;50.672;7.164;2023-06-22T11:48:46;46847.53;;;-140.95;76.41
38054;BME280;23859;50.672;7.164;2023-06-22T11:51:12;46867.69;;;-140.95;76.70
38054;BME280;23859;50.672;7.164;2023-06-22T11:53:38;46865.69;;;-140.95;77.46
38054;BME280;23859;50.672;7.164;2023-06-22T11:56:04;46873.75;;;-140.95;77.00
38054;BME280;23859;50.672;7.164;2023-06-22T11:58:30;46885.81;;;-140.95;76.77
38054;BME280;23859;50.672;7.164;2023-06-22T12:00:56;46893.88;;;-140.95;77.70
38054;BME280;23859;50.672;7.164;2023-06-22T12:03:23;46881.81;;;-140.95;78.27
38054;BME280;23859;50.672;7.164;2023-06-22T12:05:50;46845.53;;;-140.95;78.72
38054;BME280;23859;50.672;7.164;2023-06-22T12:08:18;46885.81;;;-140.95;79.71
38054;BME280;23859;50.672;7.164;2023-06-22T12:10:44;46885.81;;;-140.95;77.88
38054;BME280;23859;50.672;7.164;2023-06-22T12:13:10;46897.91;;;-140.95;79.41
38054;BME280;23859;50.672;7.164;2023-06-22T12:15:36;46889.84;;;-140.95;78.89
38054;BME280;23859;50.672;7.164;2023-06-22T12:18:02;46893.88;;;-140.95;75.42
38054;BME280;23859;50.672;7.164;2023-06-22T12:20:28;46889.84;;;-140.95;76.73
38054;BME280;23859;50.672;7.164;2023-06-22T12:22:54;46887.84;;;-140.95;76.52
38054;BME280;23859;50.672;7.164;2023-06-22T12:25:22;46873.75;;;-140.95;75.89
38054;BME280;23859;50.672;7.164;2023-06-22T12:27:48;46849.56;;;-140.95;75.58
38054;BME280;23859;50.672;7.164;2023-06-22T12:30:15;46831.44;;;-140.95;74.37
38054;BME280;23859;50.672;7.164;2023-06-22T12:32:41;46843.50;;;-140.95;73.04
38054;BME280;23859;50.672;7.164;2023-06-22T12:35:07;46825.38;;;-140.95;71.78
38054;BME280;23859;50.672;7.164;2023-06-22T12:37:42;46825.38;;;-140.95;70.73
38054;BME280;23859;50.672;7.164;2023-06-22T12:40:09;46809.25;;;-140.95;69.27
38054;BME280;23859;50.672;7.164;2023-06-22T12:42:35;46803.22;;;-140.95;69.10